Time;durP1;ratioP1;P1;durP2;ratioP2;P2;SDS_P1;SDS_P2;PMS_P1;PMS_P2;Temp;Humidity;BMP_temperature;BMP_pressure;BME280_temperature;BME280_humidity;BME280_pressure;Samples;Min_cycle;Max_cycle;Signal;HPM_P1;HPM_P2
2021/08/16 00:00:54;;;;;;;31.70;28.40;;;;;;;19.45;100.00;98517.22;2097165;28;20492;-76
2021/08/16 00:01:55;;;;;;;31.33;27.80;;;;;;;19.46;100.00;98516.88;2096210;28;20492;-76
2021/08/16 00:02:57;;;;;;;30.27;27.27;;;;;;;19.61;100.00;98525.97;2096328;28;20464;-76
2021/08/16 00:03:57;;;;;;;31.90;28.53;;;;;;;19.62;100.00;98526.75;2097306;28;20623;-77
2021/08/16 00:04:59;;;;;;;32.00;28.90;;;;;;;19.62;100.00;98518.63;2097136;28;20513;-76
2021/08/16 00:06:01;;;;;;;32.47;29.07;;;;;;;19.60;100.00;98521.69;2096555;28;20328;-77
2021/08/16 00:07:03;;;;;;;37.23;29.97;;;;;;;19.56;100.00;98523.59;2080588;28;20462;-76
2021/08/16 00:08:05;;;;;;;32.60;29.23;;;;;;;19.55;100.00;98518.53;2095961;28;20484;-77
2021/08/16 00:09:08;;;;;;;33.27;29.67;;;;;;;19.53;100.00;98521.56;2096318;28;20784;-76
2021/08/16 00:10:10;;;;;;;32.33;29.20;;;;;;;19.51;100.00;98517.69;2087727;28;20472;-76
2021/08/16 00:11:12;;;;;;;33.20;29.53;;;;;;;19.53;100.00;98528.91;2096246;28;20448;-76
2021/08/16 00:12:13;;;;;;;31.13;28.10;;;;;;;19.56;100.00;98522.78;2096489;28;20444;-76
2021/08/16 00:13:14;;;;;;;30.33;27.33;;;;;;;19.62;100.00;98538.34;2096440;28;21044;-76
2021/08/16 00:14:16;;;;;;;30.90;27.83;;;;;;;19.67;100.00;98526.41;2097016;28;20834;-76
2021/08/16 00:15:16;;;;;;;31.87;28.67;;;;;;;19.67;100.00;98523.72;2097334;28;20245;-76
2021/08/16 00:16:18;;;;;;;30.37;27.10;;;;;;;19.68;100.00;98534.16;2096975;28;20535;-76
2021/08/16 00:17:19;;;;;;;29.57;26.63;;;;;;;19.79;100.00;98528.88;2096367;28;20223;-76
2021/08/16 00:18:20;;;;;;;30.20;26.80;;;;;;;19.80;100.00;98540.47;2080089;28;20453;-76
2021/08/16 00:19:21;;;;;;;30.67;27.43;;;;;;;19.76;100.00;98530.41;2096319;28;20272;-76
2021/08/16 00:20:22;;;;;;;30.63;27.63;;;;;;;19.76;100.00;98538.50;2096888;28;20922;-76
2021/08/16 00:21:24;;;;;;;30.70;27.80;;;;;;;19.72;100.00;98532.28;2096177;28;20226;-76
2021/08/16 00:22:26;;;;;;;30.90;27.40;;;;;;;19.82;100.00;98538.19;2085894;28;20461;-76
2021/08/16 00:23:27;;;;;;;31.27;28.23;;;;;;;19.76;100.00;98538.50;2092841;28;20457;-76
2021/08/16 00:24:28;;;;;;;30.50;27.53;;;;;;;19.77;100.00;98529.25;2096268;28;20441;-76
2021/08/16 00:25:29;;;;;;;30.77;27.47;;;;;;;19.75;100.00;98518.00;2094124;28;20222;-77
2021/08/16 00:26:31;;;;;;;30.50;27.20;;;;;;;19.79;100.00;98533.50;2087489;28;20487;-76
2021/08/16 00:27:34;;;;;;;30.53;27.47;;;;;;;19.84;100.00;98530.47;2096360;28;20271;-76
2021/08/16 00:28:35;;;;;;;31.40;28.27;;;;;;;19.75;100.00;98520.72;2097012;28;20447;-76
2021/08/16 00:29:36;;;;;;;31.47;28.27;;;;;;;19.73;100.00;98524.94;2096201;28;20451;-76
2021/08/16 00:30:38;;;;;;;30.40;27.30;;;;;;;19.69;100.00;98519.47;2095994;28;20464;-77
2021/08/16 00:31:38;;;;;;;30.27;27.43;;;;;;;19.64;100.00;98519.81;2095952;28;20627;-76
2021/08/16 00:32:40;;;;;;;30.23;27.17;;;;;;;19.62;100.00;98515.91;2095919;28;20456;-76
2021/08/16 00:33:41;;;;;;;30.97;27.83;;;;;;;19.60;100.00;98524.41;2088214;28;20234;-76
2021/08/16 00:34:42;;;;;;;34.73;29.57;;;;;;;19.56;100.00;98523.59;2080984;28;20944;-77
2021/08/16 00:35:43;;;;;;;31.70;28.37;;;;;;;19.54;100.00;98523.13;2095032;28;20214;-76
2021/08/16 00:36:46;;;;;;;32.00;28.37;;;;;;;19.52;100.00;98521.94;2096132;28;20456;-76
2021/08/16 00:37:47;;;;;;;32.70;29.43;;;;;;;19.47;100.00;98512.25;2095946;28;20241;-76
2021/08/16 00:38:48;;;;;;;33.27;29.67;;;;;;;19.45;100.00;98514.50;2096068;28;20456;-77
2021/08/16 00:39:49;;;;;;;32.73;29.33;;;;;;;19.44;100.00;98521.84;2096184;28;20244;-76
2021/08/16 00:40:51;;;;;;;32.33;29.13;;;;;;;19.43;100.00;98519.53;2095986;28;20893;-77
2021/08/16 00:41:51;;;;;;;34.03;30.03;;;;;;;19.42;100.00;98518.75;2095800;28;20233;-77
2021/08/16 00:42:53;;;;;;;32.87;29.80;;;;;;;19.39;100.00;98516.78;2095964;28;20517;-76
2021/08/16 00:43:54;;;;;;;34.73;31.17;;;;;;;19.40;100.00;98520.28;2096298;28;20700;-76
2021/08/16 00:44:55;;;;;;;34.30;30.70;;;;;;;19.39;100.00;98524.13;2096910;28;20778;-76
2021/08/16 00:45:56;;;;;;;33.67;30.30;;;;;;;19.38;100.00;98517.94;2096897;28;20313;-76
2021/08/16 00:46:58;;;;;;;33.93;30.57;;;;;;;19.37;100.00;98520.97;2096096;28;20490;-76
2021/08/16 00:47:59;;;;;;;34.27;30.77;;;;;;;19.37;100.00;98520.97;2080824;28;20457;-77
2021/08/16 00:49:01;;;;;;;35.27;30.33;;;;;;;19.36;100.00;98520.22;2095109;28;20444;-77
2021/08/16 00:50:02;;;;;;;35.97;31.90;;;;;;;19.39;100.00;98516.78;2087957;28;20699;-76
2021/08/16 00:51:05;;;;;;;34.70;30.93;;;;;;;19.42;100.00;98518.75;2096087;28;20455;-76
2021/08/16 00:52:08;;;;;;;36.50;32.80;;;;;;;19.42;100.00;98518.75;2096927;28;20498;-77
2021/08/16 00:53:08;;;;;;;34.07;30.67;;;;;;;19.41;100.00;98521.81;2096354;28;20445;-77
2021/08/16 00:54:10;;;;;;;36.10;31.97;;;;;;;19.43;100.00;98519.53;2096156;28;20449;-76
2021/08/16 00:55:12;;;;;;;35.87;31.23;;;;;;;19.40;100.00;98520.28;2087885;28;20665;-76
2021/08/16 00:56:13;;;;;;;37.13;31.87;;;;;;;19.41;100.00;98516.41;2096112;28;20440;-76
2021/08/16 00:57:14;;;;;;;34.83;31.47;;;;;;;19.40;100.00;98528.38;2097124;28;20464;-77
2021/08/16 00:58:16;;;;;;;35.17;31.70;;;;;;;19.38;100.00;98517.16;2096754;28;20453;-76
2021/08/16 00:59:18;;;;;;;34.87;31.07;;;;;;;19.37;100.00;98521.78;2096824;28;20214;-76
2021/08/16 01:00:20;;;;;;;33.93;30.43;;;;;;;19.37;100.00;98524.50;2096478;28;20460;-76
2021/08/16 01:01:21;;;;;;;34.23;30.53;;;;;;;19.37;100.00;98521.78;2098598;28;20897;-77
2021/08/16 01:02:22;;;;;;;36.03;32.53;;;;;;;19.36;100.00;98512.09;2098414;28;20456;-77
2021/08/16 01:03:23;;;;;;;40.70;32.73;;;;;;;19.36;100.00;98511.31;2090391;28;20218;-76
2021/08/16 01:04:25;;;;;;;39.83;32.77;;;;;;;19.39;100.00;98508.66;2098911;28;20519;-77
2021/08/16 01:05:26;;;;;;;37.97;32.77;;;;;;;19.40;100.00;98493.22;2098712;28;20222;-76
2021/08/16 01:06:28;;;;;;;37.10;33.23;;;;;;;19.42;100.00;98499.81;2083501;28;20454;-77
2021/08/16 01:07:31;;;;;;;36.80;32.97;;;;;;;19.47;100.00;98504.13;2097733;28;20221;-76
2021/08/16 01:08:31;;;;;;;39.90;32.83;;;;;;;19.46;100.00;98497.16;2099597;28;20870;-77
2021/08/16 01:09:33;;;;;;;36.23;32.67;;;;;;;19.46;100.00;98502.56;2098525;28;20460;-76
2021/08/16 01:10:35;;;;;;;36.97;33.17;;;;;;;19.46;100.00;98497.16;2098952;28;20700;-77
2021/08/16 01:11:36;;;;;;;37.57;33.00;;;;;;;19.42;100.00;98497.09;2098354;28;20511;-76
2021/08/16 01:12:38;;;;;;;35.70;31.97;;;;;;;19.42;100.00;98499.81;2098646;28;20458;-77
2021/08/16 01:13:39;;;;;;;37.17;33.20;;;;;;;19.40;100.00;98498.63;2098210;28;20558;-76
2021/08/16 01:14:41;;;;;;;38.60;33.43;;;;;;;19.39;100.00;98502.47;2090379;28;20483;-76
2021/08/16 01:15:52;;;;;;;35.80;31.60;;;;;;;19.38;100.00;98496.28;2090802;28;20230;-76
2021/08/16 01:16:54;;;;;;;36.73;31.43;;;;;;;19.39;100.00;98503.25;2091323;28;20461;-76
2021/08/16 01:17:55;;;;;;;35.57;31.83;;;;;;;19.41;100.00;98505.59;2090924;28;20848;-76
2021/08/16 01:18:57;;;;;;;34.97;30.67;;;;;;;19.50;100.00;98503.38;2098747;28;20448;-76
2021/08/16 01:19:57;;;;;;;34.80;31.20;;;;;;;19.55;100.00;98503.06;2099542;28;20465;-76
2021/08/16 01:21:00;;;;;;;34.13;30.63;;;;;;;19.60;100.00;98504.69;2098779;28;20448;-75
2021/08/16 01:22:01;;;;;;;37.63;33.73;;;;;;;19.66;100.00;98504.00;2098709;28;20225;-76
2021/08/16 01:23:04;;;;;;;38.47;34.03;;;;;;;19.63;100.00;98491.19;2099632;28;20441;-76
2021/08/16 01:24:05;;;;;;;36.87;33.27;;;;;;;19.61;100.00;98493.47;2098751;28;20226;-76
2021/08/16 01:25:09;;;;;;;35.47;31.67;;;;;;;19.57;100.00;98481.84;2098804;28;20520;-76
2021/08/16 01:26:10;;;;;;;35.27;31.57;;;;;;;19.53;100.00;98475.56;2099029;28;20487;-76
2021/08/16 01:27:13;;;;;;;40.33;32.23;;;;;;;19.52;100.00;98473.25;2099417;28;20463;-76
2021/08/16 01:28:15;;;;;;;36.00;32.17;;;;;;;19.47;100.00;98466.25;2099530;28;20241;-76
2021/08/16 01:29:17;;;;;;;36.03;32.00;;;;;;;19.43;100.00;98462.72;2099496;28;20505;-76
2021/08/16 01:30:18;;;;;;;37.33;31.17;;;;;;;19.41;100.00;98451.47;2098620;28;20452;-76
2021/08/16 01:31:20;;;;;;;35.90;32.33;;;;;;;19.40;100.00;98449.94;2098614;28;20448;-76
2021/08/16 01:32:20;;;;;;;37.23;33.30;;;;;;;19.37;100.00;98447.94;2098638;28;20476;-76
2021/08/16 01:33:23;;;;;;;36.70;32.93;;;;;;;19.34;100.00;98443.28;2098762;28;20981;-76
2021/08/16 01:34:23;;;;;;;37.20;33.30;;;;;;;19.34;100.00;98445.97;2098198;28;20604;-76
2021/08/16 01:35:25;;;;;;;39.47;33.47;;;;;;;19.31;100.00;98447.50;2098483;28;20543;-77
2021/08/16 01:36:25;;;;;;;36.07;32.43;;;;;;;19.30;100.00;98456.00;2090287;28;20226;-76
2021/08/16 01:37:27;;;;;;;37.57;33.27;;;;;;;19.29;100.00;98449.81;2083711;28;20450;-76
2021/08/16 01:38:29;;;;;;;38.43;34.43;;;;;;;19.28;100.00;98453.63;2097359;28;20240;-76
2021/08/16 01:39:31;;;;;;;37.33;33.53;;;;;;;19.28;100.00;98450.16;2098512;28;20450;-77
2021/08/16 01:40:31;;;;;;;37.23;32.43;;;;;;;19.27;100.00;98448.59;2098173;28;21104;-76
2021/08/16 01:41:33;;;;;;;37.37;33.40;;;;;;;19.28;100.00;98455.56;2098819;28;20882;-76
2021/08/16 01:42:36;;;;;;;39.43;33.40;;;;;;;19.28;100.00;98453.63;2098551;28;20225;-76
2021/08/16 01:43:38;;;;;;;38.77;34.50;;;;;;;19.35;100.00;98455.66;2098382;28;20444;-77
2021/08/16 01:44:38;;;;;;;36.70;32.90;;;;;;;19.35;100.00;98456.44;2099461;28;20455;-76
2021/08/16 01:45:40;;;;;;;36.07;32.27;;;;;;;19.34;100.00;98454.09;2099402;28;20488;-76
2021/08/16 01:46:41;;;;;;;36.83;33.13;;;;;;;19.35;100.00;98463.78;2099421;28;20300;-76
2021/08/16 01:47:42;;;;;;;36.40;32.80;;;;;;;19.33;100.00;98460.66;2098605;28;20498;-77
2021/08/16 01:48:43;;;;;;;35.30;31.50;;;;;;;19.39;100.00;98465.38;2098586;28;20221;-76
2021/08/16 01:49:45;;;;;;;36.07;32.10;;;;;;;19.39;100.00;98459.19;2099490;28;20952;-76
2021/08/16 01:50:46;;;;;;;35.30;31.67;;;;;;;19.41;100.00;98470.41;2099419;28;20249;-76
2021/08/16 01:51:48;;;;;;;37.43;33.53;;;;;;;19.44;100.00;98472.38;2099480;28;20571;-76
2021/08/16 01:52:49;;;;;;;36.07;31.57;;;;;;;19.43;100.00;98476.22;2098496;28;20782;-76
2021/08/16 01:53:50;;;;;;;34.73;31.07;;;;;;;19.41;100.00;98478.53;2082500;28;20472;-76
2021/08/16 01:54:51;;;;;;;36.13;32.60;;;;;;;19.36;100.00;98476.91;2098729;28;20221;-76
2021/08/16 01:55:53;;;;;;;37.50;33.47;;;;;;;19.37;100.00;98467.69;2099105;28;20448;-77
2021/08/16 01:56:53;;;;;;;37.63;33.60;;;;;;;19.35;100.00;98474.59;2098648;28;20253;-77
2021/08/16 01:57:56;;;;;;;36.70;32.93;;;;;;;19.33;100.00;98464.13;2083640;28;20461;-76
2021/08/16 01:58:57;;;;;;;36.83;33.03;;;;;;;19.32;100.00;98469.94;2097307;28;20237;-77
2021/08/16 01:59:58;;;;;;;36.43;32.50;;;;;;;19.31;100.00;98460.25;2099367;28;20448;-76
2021/08/16 02:00:59;;;;;;;41.13;33.97;;;;;;;19.33;100.00;98457.94;2098349;28;20225;-77
2021/08/16 02:02:01;;;;;;;37.23;33.33;;;;;;;19.31;100.00;98457.56;2098606;28;20447;-76
2021/08/16 02:03:01;;;;;;;37.20;33.37;;;;;;;19.30;100.00;98456.00;2098556;28;20731;-77
2021/08/16 02:04:03;;;;;;;39.03;33.57;;;;;;;19.30;100.00;98453.28;2098690;28;20812;-77
2021/08/16 02:05:05;;;;;;;37.53;33.57;;;;;;;19.28;100.00;98452.84;2098664;28;20230;-77
2021/08/16 02:06:06;;;;;;;38.83;34.73;;;;;;;19.28;100.00;98464.47;2098631;28;20467;-76
2021/08/16 02:07:07;;;;;;;35.67;32.13;;;;;;;19.26;100.00;98461.34;2098992;28;20516;-77
2021/08/16 02:08:09;;;;;;;35.80;32.03;;;;;;;19.36;100.00;98457.22;2098454;28;20460;-77
2021/08/16 02:09:09;;;;;;;37.97;32.93;;;;;;;19.33;100.00;98456.03;2083529;28;20335;-77
2021/08/16 02:10:11;;;;;;;37.17;33.20;;;;;;;19.34;100.00;98457.59;2082150;28;20454;-77
2021/08/16 02:11:12;;;;;;;36.70;32.73;;;;;;;19.34;100.00;98462.22;2084344;28;20259;-77
2021/08/16 02:12:14;;;;;;;38.20;32.83;;;;;;;19.32;100.00;98461.81;2095902;28;20441;-77
2021/08/16 02:13:16;;;;;;;37.10;33.43;;;;;;;19.34;100.00;98473.03;2097918;28;20218;-77
2021/08/16 02:14:17;;;;;;;45.43;34.13;;;;;;;19.33;100.00;98479.59;2098113;28;20447;-77
2021/08/16 02:15:19;;;;;;;42.40;35.40;;;;;;;19.39;100.00;98483.53;2097941;28;20569;-76
2021/08/16 02:16:20;;;;;;;37.70;33.80;;;;;;;19.49;100.00;98516.13;2098044;28;20464;-76
2021/08/16 02:17:21;;;;;;;34.43;30.83;;;;;;;19.50;100.00;98525.03;2097026;28;20494;-77
2021/08/16 02:18:23;;;;;;;33.73;30.37;;;;;;;19.32;100.00;98497.75;2096830;28;20437;-76
2021/08/16 02:19:23;;;;;;;36.47;32.47;;;;;;;19.31;100.00;98458.31;2086798;28;20652;-76
2021/08/16 02:20:25;;;;;;;35.40;30.77;;;;;;;19.36;100.00;98471.50;2093402;28;20517;-76
2021/08/16 02:21:25;;;;;;;34.37;30.87;;;;;;;19.36;100.00;98486.97;2097453;28;20237;-76
2021/08/16 02:22:27;;;;;;;34.27;30.53;;;;;;;19.38;100.00;98506.34;2097258;28;20457;-76
2021/08/16 02:23:28;;;;;;;34.80;30.67;;;;;;;19.33;100.00;98506.66;2088853;28;20223;-76
2021/08/16 02:24:30;;;;;;;34.07;30.43;;;;;;;19.32;100.00;98491.56;2097275;28;20507;-76
2021/08/16 02:25:30;;;;;;;35.33;30.40;;;;;;;19.29;100.00;98486.91;2097126;28;20482;-76
2021/08/16 02:26:32;;;;;;;34.83;29.13;;;;;;;19.29;100.00;98482.28;2097014;28;20510;-76
2021/08/16 02:27:33;;;;;;;33.23;29.77;;;;;;;19.31;100.00;98481.91;2097184;28;20308;-76
2021/08/16 02:28:36;;;;;;;35.10;29.60;;;;;;;19.31;100.00;98481.91;2097083;28;20456;-77
2021/08/16 02:29:37;;;;;;;34.07;29.67;;;;;;;19.30;100.00;98472.22;2094815;28;20272;-77
2021/08/16 02:30:38;;;;;;;32.33;29.10;;;;;;;19.28;100.00;98469.09;2097067;28;20558;-76
2021/08/16 02:31:39;;;;;;;33.83;29.63;;;;;;;19.25;100.00;98459.78;2097181;28;20635;-77
2021/08/16 02:32:40;;;;;;;32.43;29.23;;;;;;;19.25;100.00;98459.00;2097899;28;20460;-76
2021/08/16 02:33:41;;;;;;;40.00;29.20;;;;;;;19.27;100.00;98452.09;2097175;28;20742;-76
2021/08/16 02:34:43;;;;;;;32.60;29.33;;;;;;;19.25;100.00;98448.19;2097227;28;20835;-76
2021/08/16 02:35:44;;;;;;;34.20;29.87;;;;;;;19.23;100.00;98453.97;2097909;28;20284;-77
2021/08/16 02:36:46;;;;;;;34.27;29.83;;;;;;;19.22;100.00;98457.06;2097852;28;20445;-76
2021/08/16 02:37:47;;;;;;;36.20;29.00;;;;;;;19.20;100.00;98452.78;2097029;28;20305;-77
2021/08/16 02:38:48;;;;;;;31.57;28.27;;;;;;;19.22;100.00;98446.25;2097091;28;20464;-77
2021/08/16 02:39:49;;;;;;;31.93;28.87;;;;;;;19.31;100.00;98446.72;2097139;28;20432;-76
2021/08/16 02:40:50;;;;;;;31.90;28.80;;;;;;;19.40;100.00;98447.22;2097152;28;20244;-76
2021/08/16 02:41:52;;;;;;;31.70;28.23;;;;;;;19.39;100.00;98437.56;2097953;28;20452;-76
2021/08/16 02:42:52;;;;;;;31.50;28.10;;;;;;;19.35;100.00;98434.78;2094753;28;20688;-77
2021/08/16 02:43:55;;;;;;;30.63;27.57;;;;;;;19.31;100.00;98436.69;2097092;28;20833;-77
2021/08/16 02:44:56;;;;;;;31.60;28.50;;;;;;;19.27;100.00;98435.06;2097059;28;20692;-76
2021/08/16 02:45:57;;;;;;;34.20;29.17;;;;;;;19.27;100.00;98424.25;2086697;28;20834;-76
2021/08/16 02:46:59;;;;;;;33.13;29.73;;;;;;;19.28;100.00;98437.41;2094064;28;20716;-77
2021/08/16 02:48:00;;;;;;;30.63;27.67;;;;;;;19.32;100.00;98435.53;2096975;28;20922;-76
2021/08/16 02:49:01;;;;;;;34.83;28.23;;;;;;;19.28;100.00;98431.22;2088789;28;20496;-76
2021/08/16 02:50:03;;;;;;;32.77;29.33;;;;;;;19.24;100.00;98419.59;2097087;28;20447;-76
2021/08/16 02:51:04;;;;;;;31.80;28.67;;;;;;;19.23;100.00;98407.22;2097829;28;20225;-76
2021/08/16 02:52:07;;;;;;;36.00;29.47;;;;;;;19.18;100.00;98406.38;2097718;28;20524;-76
2021/08/16 02:53:07;;;;;;;31.97;28.47;;;;;;;19.15;100.00;98407.13;2097396;28;20763;-77
2021/08/16 02:54:09;;;;;;;30.90;27.63;;;;;;;19.09;100.00;98422.13;2097805;28;20833;-77
2021/08/16 02:55:11;;;;;;;31.57;28.37;;;;;;;19.03;100.00;98447.16;2096891;28;20722;-76
2021/08/16 02:56:12;;;;;;;31.00;27.90;;;;;;;19.07;100.00;98453.38;2097033;28;20447;-76
2021/08/16 02:57:13;;;;;;;31.73;28.23;;;;;;;19.09;100.00;98453.78;2096860;28;20448;-76
2021/08/16 02:58:14;;;;;;;34.07;30.50;;;;;;;19.04;100.00;98449.50;2088628;28;20948;-77
2021/08/16 02:59:16;;;;;;;32.27;29.07;;;;;;;19.09;100.00;98441.03;2088519;28;20246;-76
2021/08/16 03:00:18;;;;;;;32.70;29.40;;;;;;;19.05;100.00;98442.16;2097083;28;20486;-76
2021/08/16 03:01:19;;;;;;;32.60;29.07;;;;;;;18.99;100.00;98439.00;2097578;28;20484;-77
2021/08/16 03:02:20;;;;;;;32.63;29.20;;;;;;;18.96;100.00;98439.72;2096899;28;20460;-77
2021/08/16 03:03:21;;;;;;;32.80;29.40;;;;;;;18.93;100.00;98432.34;2097059;28;20226;-76
2021/08/16 03:04:23;;;;;;;30.57;27.30;;;;;;;19.02;100.00;98440.19;2096354;28;20543;-77
2021/08/16 03:05:23;;;;;;;31.57;28.37;;;;;;;19.13;100.00;98441.88;2088561;28;20749;-77
2021/08/16 03:06:25;;;;;;;31.83;28.50;;;;;;;19.16;100.00;98451.97;2096898;28;20844;-77
2021/08/16 03:07:26;;;;;;;31.97;28.57;;;;;;;19.10;100.00;98458.06;2097013;28;20314;-77
2021/08/16 03:08:27;;;;;;;32.03;28.70;;;;;;;19.08;100.00;98454.94;2096906;28;20452;-76
2021/08/16 03:09:28;;;;;;;32.30;28.87;;;;;;;19.07;100.00;98456.09;2096850;28;20684;-77
2021/08/16 03:10:30;;;;;;;33.73;30.30;;;;;;;19.08;100.00;98447.59;2096709;28;20858;-77
2021/08/16 03:11:30;;;;;;;32.60;29.43;;;;;;;19.06;100.00;98452.59;2096971;28;20225;-77
2021/08/16 03:12:32;;;;;;;32.47;29.00;;;;;;;19.00;100.00;98456.00;2097466;28;20487;-76
2021/08/16 03:13:33;;;;;;;31.73;28.40;;;;;;;18.92;100.00;98447.00;2097584;28;20262;-76
2021/08/16 03:14:36;;;;;;;30.93;27.73;;;;;;;18.90;100.00;98443.91;2096816;28;20950;-77
2021/08/16 03:15:37;;;;;;;31.10;28.20;;;;;;;18.97;100.00;98452.09;2088131;28;20468;-77
2021/08/16 03:16:38;;;;;;;32.53;29.17;;;;;;;18.98;100.00;98445.53;2088436;28;20453;-77
2021/08/16 03:17:39;;;;;;;32.10;28.80;;;;;;;19.03;100.00;98442.53;2081952;28;20261;-77
2021/08/16 03:18:41;;;;;;;32.07;28.77;;;;;;;19.20;100.00;98441.97;2095267;28;20453;-77
2021/08/16 03:19:42;;;;;;;32.80;28.83;;;;;;;19.28;100.00;98442.03;2096708;28;20305;-77
2021/08/16 03:20:43;;;;;;;31.90;28.50;;;;;;;19.22;100.00;98422.66;2096902;28;20484;-77
2021/08/16 03:21:45;;;;;;;31.67;28.60;;;;;;;19.20;100.00;98425.75;2097676;28;20445;-77
2021/08/16 03:22:45;;;;;;;31.20;28.07;;;;;;;19.13;100.00;98425.66;2096627;28;20313;-77
2021/08/16 03:23:47;;;;;;;33.97;29.00;;;;;;;19.04;100.00;98425.16;2096652;28;20444;-77
2021/08/16 03:24:47;;;;;;;32.90;28.90;;;;;;;18.98;100.00;98429.31;2097535;28;20224;-77
2021/08/16 03:25:49;;;;;;;32.80;29.27;;;;;;;18.90;100.00;98435.78;2097637;28;20455;-77
2021/08/16 03:26:51;;;;;;;31.30;28.20;;;;;;;18.86;100.00;98432.28;2097513;28;20602;-77
2021/08/16 03:27:52;;;;;;;31.40;28.03;;;;;;;18.80;100.00;98428.31;2097053;28;20966;-77
2021/08/16 03:28:53;;;;;;;31.83;28.53;;;;;;;18.75;100.00;98426.69;2097338;28;20799;-77
2021/08/16 03:29:55;;;;;;;31.37;28.17;;;;;;;18.80;100.00;98426.38;2097405;28;20579;-77
2021/08/16 03:30:57;;;;;;;32.73;29.40;;;;;;;18.76;100.00;98427.47;2097397;28;20460;-76
2021/08/16 03:32:00;;;;;;;31.73;28.30;;;;;;;18.73;100.00;98428.22;2096673;28;20471;-77
2021/08/16 03:33:02;;;;;;;30.23;27.17;;;;;;;18.66;100.00;98418.06;2096669;28;20450;-77
2021/08/16 03:34:04;;;;;;;33.00;28.80;;;;;;;18.62;100.00;98411.81;2097401;28;20511;-76
2021/08/16 03:35:05;;;;;;;35.50;28.50;;;;;;;18.63;100.00;98422.25;2097367;28;20540;-77
2021/08/16 03:36:07;;;;;;;32.30;28.90;;;;;;;18.62;100.00;98407.19;2097388;28;20440;-77
2021/08/16 03:37:08;;;;;;;32.63;29.13;;;;;;;18.60;100.00;98408.72;2096922;28;20456;-77
2021/08/16 03:38:09;;;;;;;35.87;29.37;;;;;;;18.55;100.00;98407.09;2096443;28;20460;-77
2021/08/16 03:39:10;;;;;;;32.37;29.00;;;;;;;18.55;100.00;98406.31;2096221;28;20679;-77
2021/08/16 03:40:14;;;;;;;32.87;29.60;;;;;;;18.56;100.00;98414.06;2096685;28;20871;-76
2021/08/16 03:41:14;;;;;;;31.07;28.27;;;;;;;18.57;100.00;98404.81;2096609;28;20218;-77
2021/08/16 03:42:16;;;;;;;32.17;28.80;;;;;;;18.55;100.00;98414.44;2096360;28;20457;-77
2021/08/16 03:43:16;;;;;;;34.83;30.33;;;;;;;18.51;100.00;98406.28;2096459;28;20222;-77
2021/08/16 03:44:18;;;;;;;33.20;29.80;;;;;;;18.50;100.00;98406.63;2097315;28;20455;-76
2021/08/16 03:45:21;;;;;;;33.07;29.67;;;;;;;18.49;100.00;98403.13;2096754;28;20221;-77
2021/08/16 03:46:23;;;;;;;31.97;28.63;;;;;;;18.47;100.00;98405.44;2081839;28;20454;-77
2021/08/16 03:47:23;;;;;;;33.93;30.50;;;;;;;18.45;100.00;98401.53;2096501;28;20519;-77
2021/08/16 03:48:25;;;;;;;33.30;29.77;;;;;;;18.43;100.00;98403.84;2097157;28;20451;-77
2021/08/16 03:49:26;;;;;;;33.77;30.00;;;;;;;18.44;100.00;98398.06;2097317;28;20214;-77
2021/08/16 03:50:27;;;;;;;35.77;31.17;;;;;;;18.43;100.00;98393.03;2096459;28;20498;-77
2021/08/16 03:51:28;;;;;;;35.17;31.50;;;;;;;18.47;100.00;98391.94;2096582;28;20245;-77
2021/08/16 03:52:30;;;;;;;37.23;32.57;;;;;;;18.50;100.00;98393.88;2096417;28;20523;-77
2021/08/16 03:53:31;;;;;;;34.13;30.47;;;;;;;18.60;100.00;98390.59;2096189;28;20540;-76
2021/08/16 03:54:32;;;;;;;35.23;29.97;;;;;;;18.77;100.00;98378.47;2097247;28;20460;-77
2021/08/16 03:55:33;;;;;;;33.20;29.70;;;;;;;18.85;100.00;98376.63;2097222;28;20256;-77
2021/08/16 03:56:34;;;;;;;32.33;28.70;;;;;;;18.95;100.00;98369.81;2097214;28;20460;-76
2021/08/16 03:57:35;;;;;;;32.90;29.43;;;;;;;19.01;100.00;98368.31;2097282;28;20684;-76
2021/08/16 03:58:37;;;;;;;31.30;28.00;;;;;;;19.15;100.00;98369.28;2097378;28;20810;-77
2021/08/16 03:59:37;;;;;;;34.23;28.47;;;;;;;19.19;100.00;98358.47;2095968;28;20246;-77
2021/08/16 04:00:41;;;;;;;31.77;28.60;;;;;;;19.17;100.00;98361.56;2096668;28;20456;-77
2021/08/16 04:01:42;;;;;;;31.97;28.73;;;;;;;19.22;100.00;98356.97;2096275;28;20237;-77
2021/08/16 04:02:45;;;;;;;32.17;28.73;;;;;;;19.22;100.00;98360.47;2096328;28;20802;-76
2021/08/16 04:03:46;;;;;;;31.83;28.60;;;;;;;19.22;100.00;98357.75;2096670;28;20278;-77
2021/08/16 04:04:48;;;;;;;31.90;28.80;;;;;;;19.17;100.00;98353.44;2097135;28;20479;-77
2021/08/16 04:05:49;;;;;;;31.00;27.70;;;;;;;19.11;100.00;98349.53;2096325;28;20468;-77
2021/08/16 04:06:52;;;;;;;31.17;28.07;;;;;;;19.09;100.00;98348.34;2096380;28;20459;-76
2021/08/16 04:07:53;;;;;;;32.23;28.90;;;;;;;19.04;100.00;98351.38;2096712;28;20222;-76
2021/08/16 04:08:54;;;;;;;32.43;29.03;;;;;;;19.02;100.00;98349.03;2097182;28;20464;-77
2021/08/16 04:09:56;;;;;;;32.73;29.17;;;;;;;19.00;100.00;98350.53;2097065;28;20234;-77
2021/08/16 04:10:57;;;;;;;31.90;28.73;;;;;;;19.12;100.00;98348.38;2097135;28;20463;-76
2021/08/16 04:11:58;;;;;;;31.27;28.07;;;;;;;19.27;100.00;98343.88;2096373;28;20451;-77
2021/08/16 04:13:00;;;;;;;30.57;27.47;;;;;;;19.31;100.00;98338.53;2096416;28;20455;-77
2021/08/16 04:14:00;;;;;;;31.77;28.53;;;;;;;19.32;100.00;98346.28;2097168;28;20238;-77
2021/08/16 04:15:04;;;;;;;30.10;27.00;;;;;;;19.35;100.00;98342.03;2096290;28;20515;-77
2021/08/16 04:16:06;;;;;;;30.70;27.63;;;;;;;19.41;100.00;98343.25;2096398;28;20291;-76
2021/08/16 04:17:08;;;;;;;32.13;28.23;;;;;;;19.38;100.00;98342.09;2095880;28;20457;-77
2021/08/16 04:18:09;;;;;;;31.23;27.83;;;;;;;19.32;100.00;98345.50;2096187;28;20530;-77
2021/08/16 04:19:10;;;;;;;33.63;29.23;;;;;;;19.30;100.00;98347.78;2096279;28;20465;-77
2021/08/16 04:20:13;;;;;;;33.17;29.93;;;;;;;19.27;100.00;98349.28;2096479;28;20616;-77
2021/08/16 04:21:14;;;;;;;34.27;28.80;;;;;;;19.27;100.00;98353.94;2097051;28;20502;-76
2021/08/16 04:22:15;;;;;;;32.40;29.30;;;;;;;19.27;100.00;98352.00;2097028;28;20476;-77
2021/08/16 04:23:17;;;;;;;33.27;29.87;;;;;;;19.26;100.00;98358.56;2096425;28;20504;-77
2021/08/16 04:24:17;;;;;;;34.53;30.80;;;;;;;19.26;100.00;98355.09;2096364;28;20719;-77
2021/08/16 04:25:20;;;;;;;32.20;28.97;;;;;;;19.26;100.00;98353.16;2097097;28;20799;-76
2021/08/16 04:26:20;;;;;;;32.10;28.63;;;;;;;19.31;100.00;98360.94;2097019;28;20221;-76
2021/08/16 04:27:22;;;;;;;30.73;27.67;;;;;;;19.35;100.00;98360.97;2097153;28;20457;-77
2021/08/16 04:28:22;;;;;;;30.00;27.17;;;;;;;19.40;100.00;98357.94;2096630;28;20237;-77
2021/08/16 04:29:25;;;;;;;30.33;27.33;;;;;;;19.50;100.00;98354.56;2096051;28;20459;-78
2021/08/16 04:30:25;;;;;;;31.53;27.93;;;;;;;19.58;100.00;98358.16;2096285;28;20218;-77
2021/08/16 04:31:28;;;;;;;37.23;27.53;;;;;;;19.71;100.00;98343.16;2096855;28;20476;-77
2021/08/16 04:32:29;;;;;;;30.47;27.37;;;;;;;19.83;100.00;98352.94;2096955;28;20221;-77
2021/08/16 04:33:30;;;;;;;30.87;27.80;;;;;;;19.94;100.00;98351.88;2096946;28;20440;-77
2021/08/16 04:34:31;;;;;;;30.03;26.93;;;;;;;-60.98;100.00;98346.91;2096210;28;20300;-77
2021/08/16 04:35:33;;;;;;;31.37;28.00;;;;;;;20.07;100.00;98346.97;2095599;28;20463;-77
2021/08/16 04:36:34;;;;;;;30.43;27.63;;;;;;;20.04;100.00;98339.56;2096211;28;20636;-77
2021/08/16 04:37:36;;;;;;;30.90;28.00;;;;;;;19.97;100.00;98343.00;2095978;28;20537;-77
2021/08/16 04:38:37;;;;;;;30.87;27.73;;;;;;;19.94;100.00;98343.75;2096212;28;20749;-77
2021/08/16 04:39:38;;;;;;;31.70;28.60;;;;;;;19.92;100.00;98339.88;2094467;28;20468;-77